Time;durP1;ratioP1;P1;durP2;ratioP2;P2;SDS_P1;SDS_P2;PMS_P1;PMS_P2;Temp;Humidity;BMP_temperature;BMP_pressure;BME280_temperature;BME280_humidity;BME280_pressure;Samples;Min_cycle;Max_cycle;Signal;HPM_P1;HPM_P2
2024/01/12 00:02:09;;;;;;;74.37;35.43;;;-3.00;22.20;;;;;;5026384;28;20566;-68
2024/01/12 00:04:36;;;;;;;82.77;35.93;;;-3.00;22.10;;;;;;5027562;28;20983;-68
2024/01/12 00:07:03;;;;;;;94.90;40.90;;;-2.90;22.10;;;;;;5021221;28;20489;-68
2024/01/12 00:09:32;;;;;;;85.20;36.63;;;-2.90;22.10;;;;;;5028640;28;20566;-68
2024/01/12 00:11:58;;;;;;;88.60;36.17;;;-2.90;22.20;;;;;;5028760;28;20522;-68
2024/01/12 00:14:25;;;;;;;88.13;38.03;;;-2.90;22.10;;;;;;5028456;28;20461;-68
2024/01/12 00:16:52;;;;;;;91.07;39.40;;;-2.90;22.10;;;;;;5023365;28;20562;-68
2024/01/12 00:19:20;;;;;;;95.10;38.60;;;-2.90;22.10;;;;;;5032488;28;20500;-68
2024/01/12 00:21:47;;;;;;;90.87;38.23;;;-2.90;22.00;;;;;;5027963;28;20614;-68
2024/01/12 00:24:14;;;;;;;88.60;39.57;;;-2.90;22.10;;;;;;5027192;28;20509;-68
2024/01/12 00:26:42;;;;;;;99.53;40.77;;;-2.90;22.10;;;;;;5028337;28;20488;-68
2024/01/12 00:29:09;;;;;;;87.07;39.20;;;-2.80;22.10;;;;;;5032112;28;20542;-68
2024/01/12 00:31:36;;;;;;;81.60;36.70;;;-2.90;22.10;;;;;;5030330;28;20483;-68
2024/01/12 00:34:03;;;;;;;85.27;37.23;;;-2.80;22.00;;;;;;5029020;28;20461;-68
2024/01/12 00:36:30;;;;;;;95.60;42.17;;;-2.80;21.90;;;;;;5025087;28;20862;-68
2024/01/12 00:38:57;;;;;;;102.03;41.10;;;-2.80;21.80;;;;;;5027296;28;20656;-68
2024/01/12 00:41:24;;;;;;;105.73;42.53;;;-2.80;21.70;;;;;;5027594;28;20468;-68
2024/01/12 00:43:52;;;;;;;102.93;45.77;;;-2.80;21.70;;;;;;5027490;28;20554;-68
2024/01/12 00:46:19;;;;;;;95.17;41.70;;;-2.80;21.70;;;;;;5027418;28;20482;-68
2024/01/12 00:48:46;;;;;;;90.67;39.17;;;-2.80;21.80;;;;;;5027971;28;20951;-68
2024/01/12 00:51:13;;;;;;;95.30;40.00;;;-2.70;21.80;;;;;;5028113;28;20471;-68
2024/01/12 00:53:40;;;;;;;84.70;38.40;;;-2.80;21.80;;;;;;5026204;28;20473;-68
2024/01/12 00:56:05;;;;;;;93.03;40.17;;;-2.80;21.80;;;;;;5026045;28;21231;-68
2024/01/12 00:58:32;;;;;;;97.00;41.70;;;-2.70;21.90;;;;;;5027782;28;20549;-68
2024/01/12 01:01:01;;;;;;;93.40;38.57;;;-2.70;21.80;;;;;;5027664;28;20477;-68
2024/01/12 01:03:27;;;;;;;90.20;38.27;;;-2.80;21.70;;;;;;5026967;28;20581;-68
2024/01/12 01:05:55;;;;;;;97.63;41.43;;;-2.80;21.70;;;;;;5027805;28;20574;-68
2024/01/12 01:08:22;;;;;;;90.73;35.37;;;-2.80;21.80;;;;;;5024553;28;20494;-68
2024/01/12 01:10:49;;;;;;;98.23;41.10;;;-2.80;21.70;;;;;;5026578;28;20546;-68
2024/01/12 01:13:15;;;;;;;83.20;38.73;;;-2.80;21.80;;;;;;5025275;28;20561;-67
2024/01/12 01:15:42;;;;;;;85.40;37.53;;;-2.80;21.60;;;;;;5024462;28;20451;-68
2024/01/12 01:18:11;;;;;;;90.27;37.43;;;-2.80;21.60;;;;;;5028027;28;20473;-68
2024/01/12 01:20:39;;;;;;;89.23;36.50;;;-2.80;21.70;;;;;;5026236;28;20837;-68
2024/01/12 01:23:06;;;;;;;100.33;40.37;;;-2.80;21.70;;;;;;5027067;28;21326;-68
2024/01/12 01:25:33;;;;;;;91.00;40.07;;;-2.80;21.70;;;;;;5026514;28;20906;-69
2024/01/12 01:28:01;;;;;;;84.60;38.57;;;-2.80;21.80;;;;;;5025316;28;20482;-68
2024/01/12 01:30:28;;;;;;;87.20;38.50;;;-2.80;21.80;;;;;;5023355;28;20463;-68
2024/01/12 01:32:55;;;;;;;96.57;40.80;;;-2.80;21.80;;;;;;5024309;28;20510;-68
2024/01/12 01:35:23;;;;;;;85.87;39.50;;;-2.80;21.70;;;;;;5027878;28;20530;-68
2024/01/12 01:37:51;;;;;;;93.37;39.83;;;-2.80;21.80;;;;;;5028244;28;20478;-68
2024/01/12 01:40:18;;;;;;;101.23;39.93;;;-2.80;22.00;;;;;;5024052;28;20462;-68
2024/01/12 01:42:47;;;;;;;88.57;38.43;;;-2.80;21.90;;;;;;5026718;28;20458;-68
2024/01/12 01:45:15;;;;;;;95.47;38.87;;;-2.80;21.90;;;;;;5027410;28;20510;-68
2024/01/12 01:47:42;;;;;;;93.53;39.93;;;-2.80;22.00;;;;;;5025098;28;20849;-68
2024/01/12 01:50:10;;;;;;;100.13;41.13;;;-2.80;21.90;;;;;;5024512;28;20509;-68
2024/01/12 01:52:39;;;;;;;91.10;39.20;;;-2.80;22.00;;;;;;5025151;28;20466;-69
2024/01/12 01:55:07;;;;;;;92.73;39.30;;;-2.80;22.10;;;;;;5028289;28;20447;-68
2024/01/12 01:57:35;;;;;;;97.77;39.17;;;-2.80;22.10;;;;;;5023119;28;20562;-68
2024/01/12 02:00:02;;;;;;;83.73;38.43;;;-2.80;22.10;;;;;;5024877;28;20465;-67
2024/01/12 02:02:30;;;;;;;88.80;39.60;;;-2.80;22.10;;;;;;5025261;28;20575;-69
2024/01/12 02:05:00;;;;;;;90.07;39.00;;;-2.80;22.20;;;;;;5024624;28;20490;-68
2024/01/12 02:07:27;;;;;;;94.07;40.37;;;-2.80;22.20;;;;;;5025460;28;20848;-68
2024/01/12 02:09:57;;;;;;;102.90;41.10;;;-2.80;22.20;;;;;;5024156;28;20455;-68
2024/01/12 02:12:23;;;;;;;107.90;40.73;;;-2.70;22.40;;;;;;5026088;28;20459;-68
2024/01/12 02:14:50;;;;;;;95.90;43.47;;;-2.70;23.00;;;;;;5026244;28;20451;-68
2024/01/12 02:17:18;;;;;;;101.20;42.10;;;-2.70;22.50;;;;;;5028249;28;20562;-68
2024/01/12 02:19:45;;;;;;;108.33;42.73;;;-2.70;22.70;;;;;;5026106;28;20546;-68
2024/01/12 02:22:13;;;;;;;101.50;40.93;;;-2.70;22.70;;;;;;5024237;28;20477;-68
2024/01/12 02:24:40;;;;;;;97.70;40.30;;;-2.70;22.70;;;;;;5028927;28;20465;-68
2024/01/12 02:27:07;;;;;;;106.60;43.50;;;-2.70;22.70;;;;;;5029766;28;20514;-68
2024/01/12 02:29:34;;;;;;;102.77;41.87;;;-2.60;22.80;;;;;;5029905;28;20466;-68
2024/01/12 02:32:01;;;;;;;105.63;44.50;;;-2.60;22.90;;;;;;5039083;28;20478;-68
2024/01/12 02:34:28;;;;;;;89.77;39.50;;;-2.60;23.00;;;;;;5047005;28;20462;-68
2024/01/12 02:36:54;;;;;;;108.70;45.50;;;-2.60;23.00;;;;;;5049147;28;20484;-68
2024/01/12 02:39:23;;;;;;;105.10;41.80;;;-2.60;23.00;;;;;;5048741;28;20549;-68
2024/01/12 02:41:49;;;;;;;97.10;43.47;;;-2.60;23.00;;;;;;5046112;28;20461;-68
2024/01/12 02:44:16;;;;;;;95.33;40.93;;;-2.60;23.00;;;;;;5050330;28;20959;-68
2024/01/12 02:46:43;;;;;;;100.47;42.63;;;-2.60;22.90;;;;;;5048253;28;20481;-68
2024/01/12 02:49:10;;;;;;;108.13;44.37;;;-2.60;23.10;;;;;;5050344;28;20451;-69
2024/01/12 02:51:37;;;;;;;99.50;40.53;;;-2.60;23.30;;;;;;5044709;28;20488;-68
2024/01/12 02:54:04;;;;;;;88.23;39.20;;;-2.60;23.20;;;;;;5047495;28;20466;-68
2024/01/12 02:56:32;;;;;;;98.57;46.73;;;-2.60;23.20;;;;;;5043991;28;20482;-68
2024/01/12 02:58:59;;;;;;;96.23;39.90;;;-2.60;23.20;;;;;;5049024;28;20910;-68
2024/01/12 03:01:26;;;;;;;89.70;39.57;;;-2.60;23.10;;;;;;5046676;28;20477;-68
2024/01/12 03:03:53;;;;;;;101.20;39.60;;;-2.50;23.10;;;;;;5046722;28;20462;-68
2024/01/12 03:06:20;;;;;;;92.10;41.87;;;-2.60;23.10;;;;;;5049159;28;20563;-69
2024/01/12 03:08:47;;;;;;;95.77;41.40;;;-2.60;23.10;;;;;;5045364;28;20482;-68
2024/01/12 03:11:13;;;;;;;99.97;42.43;;;-2.50;23.10;;;;;;5045860;28;20511;-68
2024/01/12 03:13:42;;;;;;;96.83;41.63;;;-2.50;23.10;;;;;;5048253;28;20466;-68
2024/01/12 03:16:18;;;;;;;90.03;40.50;;;-2.60;23.00;;;;;;5050114;28;20786;-67
2024/01/12 03:18:45;;;;;;;93.67;38.47;;;-2.60;23.00;;;;;;5044715;28;20504;-68
2024/01/12 03:21:12;;;;;;;90.83;41.53;;;-2.50;23.10;;;;;;5046017;28;20462;-68
2024/01/12 03:23:39;;;;;;;86.87;36.97;;;-2.50;23.00;;;;;;5044419;28;21012;-68
2024/01/12 03:26:06;;;;;;;104.73;42.33;;;-2.50;22.90;;;;;;5046817;28;20481;-68
2024/01/12 03:28:33;;;;;;;102.67;41.00;;;-2.50;23.00;;;;;;5048742;28;20468;-68
2024/01/12 03:31:02;;;;;;;88.70;39.37;;;-2.60;22.90;;;;;;5051026;28;20865;-68
2024/01/12 03:33:28;;;;;;;92.63;39.87;;;-2.50;22.90;;;;;;5051393;28;20827;-68
2024/01/12 03:35:55;;;;;;;99.70;40.13;;;-2.50;22.90;;;;;;5043882;28;20466;-68
2024/01/12 03:38:22;;;;;;;93.87;40.77;;;-2.50;22.90;;;;;;5047340;28;20498;-68
2024/01/12 03:40:49;;;;;;;90.53;40.73;;;-2.50;22.90;;;;;;5046835;28;20462;-68
2024/01/12 03:43:16;;;;;;;95.23;40.23;;;-2.50;22.80;;;;;;5047992;28;20544;-68
2024/01/12 03:45:43;;;;;;;101.27;41.37;;;-2.50;22.70;;;;;;5044198;28;21012;-68
2024/01/12 03:48:11;;;;;;;94.67;40.70;;;-2.50;22.70;;;;;;5045487;28;20477;-68
2024/01/12 03:50:38;;;;;;;99.17;42.57;;;-2.50;22.70;;;;;;5046393;28;20465;-68
2024/01/12 03:53:05;;;;;;;94.17;40.40;;;-2.50;22.60;;;;;;5047118;28;20454;-68
2024/01/12 03:55:32;;;;;;;92.47;40.10;;;-2.50;22.50;;;;;;5044413;28;20525;-68
2024/01/12 03:57:59;;;;;;;95.00;40.00;;;-2.50;22.50;;;;;;5044664;28;20881;-68
2024/01/12 04:00:26;;;;;;;105.53;41.53;;;-2.50;22.50;;;;;;5046115;28;20476;-68
2024/01/12 04:02:53;;;;;;;97.47;39.27;;;-2.50;22.40;;;;;;5041900;28;20466;-68
2024/01/12 04:05:21;;;;;;;106.77;42.10;;;-2.60;22.20;;;;;;5043573;28;20474;-68
2024/01/12 04:07:49;;;;;;;92.67;37.60;;;-2.60;22.10;;;;;;5040657;28;20576;-68
2024/01/12 04:10:16;;;;;;;92.03;40.53;;;-2.60;22.10;;;;;;5047310;28;20474;-68
2024/01/12 04:12:42;;;;;;;86.37;38.70;;;-2.60;22.10;;;;;;5047151;28;20450;-68
2024/01/12 04:15:10;;;;;;;95.73;39.10;;;-2.70;22.00;;;;;;5046618;28;21049;-68
2024/01/12 04:17:36;;;;;;;95.07;40.73;;;-2.70;22.10;;;;;;5046532;28;20871;-68
2024/01/12 04:20:04;;;;;;;102.43;41.43;;;-2.70;22.10;;;;;;5044424;28;20565;-68
2024/01/12 04:22:32;;;;;;;91.70;40.93;;;-2.70;22.00;;;;;;5045512;28;20519;-68
2024/01/12 04:24:59;;;;;;;89.33;36.50;;;-2.70;21.90;;;;;;5041748;28;20472;-68
2024/01/12 04:27:28;;;;;;;90.70;39.30;;;-2.80;22.40;;;;;;5044658;28;21074;-68
2024/01/12 04:29:55;;;;;;;90.80;36.73;;;-2.80;21.80;;;;;;5041126;28;20882;-68
2024/01/12 04:32:22;;;;;;;88.10;38.03;;;-2.80;21.70;;;;;;5045657;28;20474;-68
2024/01/12 04:34:48;;;;;;;87.50;36.23;;;-2.80;21.80;;;;;;5042856;28;20476;-68
2024/01/12 04:37:15;;;;;;;87.20;37.67;;;-2.90;21.70;;;;;;5047634;28;21065;-68
2024/01/12 04:39:43;;;;;;;87.20;37.50;;;-2.90;21.70;;;;;;5045493;28;20831;-68
2024/01/12 04:42:11;;;;;;;82.33;38.87;;;-2.90;21.70;;;;;;5041543;28;20605;-68
2024/01/12 04:44:38;;;;;;;74.00;35.73;;;-2.90;21.60;;;;;;5044800;28;20468;-68
2024/01/12 04:47:06;;;;;;;74.53;35.57;;;-2.90;21.60;;;;;;5043069;28;20986;-68
2024/01/12 04:49:33;;;;;;;81.87;36.40;;;-2.90;21.40;;;;;;5043180;28;20829;-68
2024/01/12 04:52:00;;;;;;;78.17;35.90;;;-3.00;22.00;;;;;;5037749;28;20454;-68
2024/01/12 04:54:27;;;;;;;74.07;34.20;;;-3.00;21.40;;;;;;5044194;28;20458;-68
2024/01/12 04:56:55;;;;;;;82.50;36.03;;;-3.00;22.10;;;;;;5047697;28;20560;-68
2024/01/12 04:59:22;;;;;;;92.50;38.00;;;-3.00;21.50;;;;;;5044547;28;20554;-67
2024/01/12 05:01:49;;;;;;;81.40;34.70;;;-3.00;21.60;;;;;;5038284;28;20488;-69
2024/01/12 05:04:16;;;;;;;78.27;36.17;;;-3.00;21.60;;;;;;5042406;28;20462;-69
2024/01/12 05:06:43;;;;;;;88.03;35.93;;;-3.00;21.60;;;;;;5043750;28;21037;-68
2024/01/12 05:09:10;;;;;;;81.10;38.80;;;-3.00;21.60;;;;;;5043982;28;20966;-68
2024/01/12 05:11:37;;;;;;;85.70;37.20;;;-3.00;21.60;;;;;;5046530;28;20468;-69
2024/01/12 05:14:05;;;;;;;87.47;38.83;;;-3.00;21.60;;;;;;5043648;28;20457;-70
2024/01/12 05:16:32;;;;;;;88.27;36.07;;;-3.10;21.60;;;;;;5037943;28;20482;-69
2024/01/12 05:18:59;;;;;;;89.27;39.10;;;-3.10;21.60;;;;;;5039782;28;20467;-69
2024/01/12 05:21:26;;;;;;;93.50;37.90;;;-3.10;21.70;;;;;;5057336;23;20482;-65
2024/01/12 05:23:53;;;;;;;81.60;35.10;;;-3.00;21.70;;;;;;5047169;28;20545;-65
2024/01/12 05:26:20;;;;;;;92.77;38.20;;;-3.00;21.70;;;;;;5049607;28;20635;-65
2024/01/12 05:28:47;;;;;;;90.17;37.23;;;-3.00;21.70;;;;;;5064958;28;20470;-66
2024/01/12 05:31:16;;;;;;;91.53;38.33;;;-3.10;21.70;;;;;;5065775;28;20503;-68
2024/01/12 05:33:42;;;;;;;89.93;37.33;;;-3.10;21.70;;;;;;5063224;28;20453;-67
2024/01/12 05:36:09;;;;;;;87.67;35.47;;;-3.00;21.70;;;;;;5060497;28;20545;-66
2024/01/12 05:38:36;;;;;;;97.93;38.73;;;-3.10;21.70;;;;;;5062450;28;20462;-67
2024/01/12 05:41:03;;;;;;;68.87;33.37;;;-3.10;21.60;;;;;;5062235;28;20491;-68
2024/01/12 05:43:30;;;;;;;85.60;37.60;;;-3.10;21.60;;;;;;5066185;28;20460;-68
2024/01/12 05:45:57;;;;;;;84.70;37.00;;;-3.10;21.60;;;;;;5062697;28;20578;-68
2024/01/12 05:48:25;;;;;;;79.17;37.30;;;-3.10;21.70;;;;;;5063372;28;20461;-66
2024/01/12 05:50:52;;;;;;;79.50;37.10;;;-3.10;21.70;;;;;;5062971;28;20456;-67
2024/01/12 05:53:21;;;;;;;81.80;39.73;;;-3.00;21.70;;;;;;5063575;28;20528;-66
2024/01/12 05:55:49;;;;;;;90.70;44.70;;;-3.10;21.70;;;;;;5067450;28;21338;-65
2024/01/12 05:58:15;;;;;;;91.27;37.03;;;-3.10;21.70;;;;;;5062781;28;20572;-66
2024/01/12 06:00:42;;;;;;;99.97;38.20;;;-3.10;21.70;;;;;;5058948;28;20472;-66
2024/01/12 06:03:09;;;;;;;106.03;40.37;;;-3.10;21.70;;;;;;5044903;28;20454;-66
2024/01/12 06:05:37;;;;;;;82.30;36.80;;;-3.20;21.70;;;;;;5047225;28;20476;-67
2024/01/12 06:08:05;;;;;;;94.50;37.20;;;-3.10;21.70;;;;;;5046932;28;20502;-67
2024/01/12 06:10:31;;;;;;;81.60;36.23;;;-3.20;21.60;;;;;;5041638;28;20469;-65
2024/01/12 06:12:59;;;;;;;81.33;34.90;;;-3.20;21.60;;;;;;5048195;28;20544;-66
2024/01/12 06:15:25;;;;;;;91.00;36.40;;;-3.20;21.60;;;;;;5050243;28;20450;-66
2024/01/12 06:17:52;;;;;;;77.00;32.93;;;-3.20;21.60;;;;;;5049740;28;20473;-66
2024/01/12 06:20:19;;;;;;;86.53;35.43;;;-3.20;21.60;;;;;;5046801;28;20451;-65
2024/01/12 06:22:47;;;;;;;77.47;34.23;;;-3.30;21.50;;;;;;5047788;28;20480;-66
2024/01/12 06:25:14;;;;;;;88.87;37.40;;;-3.20;21.50;;;;;;5046804;28;20468;-67
2024/01/12 06:27:42;;;;;;;80.70;32.97;;;-3.30;21.40;;;;;;5044212;28;20509;-67
2024/01/12 06:30:09;;;;;;;73.27;32.67;;;-3.30;21.40;;;;;;5048634;28;20527;-66
2024/01/12 06:32:38;;;;;;;77.17;33.83;;;-3.30;21.50;;;;;;5047809;28;20477;-66
2024/01/12 06:35:05;;;;;;;83.23;34.53;;;-3.40;21.40;;;;;;5047057;28;20545;-67
2024/01/12 06:37:32;;;;;;;83.80;34.97;;;-3.40;21.40;;;;;;5048273;28;20564;-66
2024/01/12 06:40:00;;;;;;;67.73;34.17;;;-3.30;21.40;;;;;;5047754;28;20558;-66
2024/01/12 06:42:27;;;;;;;81.50;37.67;;;-3.40;21.30;;;;;;5045366;28;20985;-66
2024/01/12 06:44:54;;;;;;;80.00;36.03;;;-3.40;21.30;;;;;;5050074;28;20466;-66
2024/01/12 06:47:23;;;;;;;93.33;38.50;;;-3.50;21.30;;;;;;5048625;28;20557;-66
2024/01/12 06:49:49;;;;;;;83.03;38.63;;;-3.50;21.40;;;;;;5044962;28;20489;-66
2024/01/12 06:52:16;;;;;;;75.17;34.70;;;-3.50;21.30;;;;;;5044070;28;20451;-66
2024/01/12 06:54:44;;;;;;;93.43;40.17;;;-3.50;21.40;;;;;;5040839;28;20454;-66
2024/01/12 06:57:12;;;;;;;82.43;35.73;;;-3.50;21.40;;;;;;5041838;28;20565;-66
2024/01/12 06:59:38;;;;;;;95.00;40.03;;;-3.50;21.30;;;;;;5047453;28;20484;-65
2024/01/12 07:02:05;;;;;;;82.37;35.23;;;-3.50;21.10;;;;;;5061134;28;20827;-66
2024/01/12 07:04:32;;;;;;;86.80;39.60;;;-3.50;21.20;;;;;;5065311;28;20865;-66
2024/01/12 07:06:59;;;;;;;87.10;36.43;;;-3.50;20.90;;;;;;5068685;28;20844;-66
2024/01/12 07:09:25;;;;;;;79.77;35.90;;;-3.50;20.90;;;;;;5063919;28;20966;-66
2024/01/12 07:11:53;;;;;;;81.47;34.73;;;-3.60;21.00;;;;;;5068516;28;21279;-66
2024/01/12 07:14:21;;;;;;;91.30;35.50;;;-3.50;21.10;;;;;;5065912;28;20511;-66
2024/01/12 07:16:48;;;;;;;87.73;34.50;;;-3.60;21.10;;;;;;5063290;28;20484;-66
2024/01/12 07:19:15;;;;;;;73.40;33.90;;;-3.60;21.10;;;;;;5061807;28;21365;-65
2024/01/12 07:21:42;;;;;;;88.30;36.10;;;-3.60;21.10;;;;;;5068638;28;20453;-65
2024/01/12 07:24:09;;;;;;;85.33;36.10;;;-3.60;21.00;;;;;;5062182;28;20962;-65
2024/01/12 07:26:36;;;;;;;83.13;36.60;;;-3.50;21.10;;;;;;5059295;28;20840;-66
2024/01/12 07:29:03;;;;;;;90.07;38.30;;;-3.70;21.00;;;;;;5065165;28;21010;-66
2024/01/12 07:31:35;;;;;;;101.77;38.97;;;-3.70;21.00;;;;;;5063339;28;20465;-66
2024/01/12 07:34:02;;;;;;;88.17;38.10;;;-3.60;20.90;;;;;;5064562;28;20501;-66
2024/01/12 07:36:29;;;;;;;103.73;41.47;;;-3.60;20.80;;;;;;5064673;28;20567;-67
2024/01/12 07:38:57;;;;;;;100.07;39.50;;;-3.60;20.90;;;;;;5067154;28;20550;-66
2024/01/12 07:41:24;;;;;;;80.00;36.90;;;-3.50;21.10;;;;;;5063907;28;20464;-66
2024/01/12 07:43:50;;;;;;;80.43;35.87;;;-3.60;21.00;;;;;;5073426;28;20461;-66
2024/01/12 07:46:18;;;;;;;88.67;35.80;;;-3.60;21.10;;;;;;5084415;28;20501;-65
2024/01/12 07:48:49;;;;;;;80.47;35.17;;;-3.60;21.10;;;;;;5081559;28;20457;-64
2024/01/12 07:51:16;;;;;;;82.57;35.27;;;-3.60;21.10;;;;;;5065671;28;21224;-65
2024/01/12 07:53:43;;;;;;;84.97;38.80;;;-3.50;21.20;;;;;;5064741;28;20457;-66
2024/01/12 07:56:11;;;;;;;90.70;37.60;;;-3.50;21.20;;;;;;5058537;28;20462;-66
2024/01/12 07:58:38;;;;;;;83.73;36.87;;;-3.50;21.20;;;;;;5064515;28;20464;-67
2024/01/12 08:01:05;;;;;;;87.23;36.20;;;-3.50;21.10;;;;;;5064414;28;20475;-66
2024/01/12 08:03:32;;;;;;;84.57;38.47;;;-3.40;21.00;;;;;;5068127;28;20451;-66
2024/01/12 08:06:01;;;;;;;79.23;35.37;;;-3.40;21.00;;;;;;5063401;28;20456;-66
2024/01/12 08:08:28;;;;;;;79.20;34.33;;;-3.30;21.00;;;;;;5065267;28;21220;-66
2024/01/12 08:10:56;;;;;;;78.87;35.30;;;-3.30;20.80;;;;;;5057266;28;20461;-66
2024/01/12 08:13:22;;;;;;;86.17;35.80;;;-3.20;20.50;;;;;;5066515;28;20834;-67
2024/01/12 08:15:53;;;;;;;89.57;37.17;;;-3.20;20.40;;;;;;5063389;28;20500;-66
2024/01/12 08:18:19;;;;;;;80.87;35.53;;;-2.90;20.40;;;;;;5060223;28;20485;-67
2024/01/12 08:20:47;;;;;;;81.20;37.10;;;-2.90;20.30;;;;;;5068448;28;20632;-66
2024/01/12 08:23:15;;;;;;;87.17;37.67;;;-2.80;20.10;;;;;;5064533;28;20457;-66
2024/01/12 08:25:42;;;;;;;94.37;37.43;;;-2.50;20.20;;;;;;5062145;28;20462;-65
2024/01/12 08:28:09;;;;;;;89.43;37.67;;;-2.40;20.00;;;;;;5063020;28;20486;-65
2024/01/12 08:30:36;;;;;;;84.80;37.47;;;-2.10;19.70;;;;;;5055731;28;20469;-66
2024/01/12 08:33:03;;;;;;;83.27;37.43;;;-1.90;19.20;;;;;;5043197;28;21216;-66
2024/01/12 08:35:30;;;;;;;85.50;39.33;;;-1.70;18.80;;;;;;5044851;28;20554;-66
2024/01/12 08:37:56;;;;;;;80.23;36.63;;;-1.60;18.30;;;;;;5047179;28;20485;-65
2024/01/12 08:40:25;;;;;;;83.93;37.10;;;-1.50;18.00;;;;;;5047310;28;20462;-65
2024/01/12 08:42:51;;;;;;;80.27;39.17;;;-1.40;17.40;;;;;;5046820;28;20556;-65
2024/01/12 08:45:18;;;;;;;84.90;41.27;;;-1.40;16.90;;;;;;5047539;28;20483;-66
2024/01/12 08:47:45;;;;;;;83.73;39.63;;;-1.50;16.90;;;;;;5045427;28;20482;-66
2024/01/12 08:50:12;;;;;;;81.90;36.77;;;-1.40;16.70;;;;;;5043048;28;21003;-66
2024/01/12 08:52:38;;;;;;;78.60;38.70;;;-1.40;16.50;;;;;;5044245;28;20458;-66
2024/01/12 08:55:09;;;;;;;81.73;35.10;;;-1.40;16.30;;;;;;5043681;28;20807;-67
2024/01/12 08:57:37;;;;;;;85.33;36.83;;;-1.40;16.20;;;;;;5041110;28;20998;-67
2024/01/12 09:00:05;;;;;;;74.20;35.53;;;-1.40;16.20;;;;;;5043179;28;20472;-67
2024/01/12 09:02:32;;;;;;;80.73;36.50;;;-1.40;16.10;;;;;;5043332;28;21018;-67
2024/01/12 09:04:58;;;;;;;77.57;36.87;;;-1.50;16.20;;;;;;5047781;28;20796;-68
2024/01/12 09:07:25;;;;;;;79.60;37.67;;;-1.50;16.30;;;;;;5044227;28;20483;-67
2024/01/12 09:09:52;;;;;;;84.03;37.13;;;-1.50;16.20;;;;;;5045377;28;20541;-67
2024/01/12 09:12:19;;;;;;;71.97;33.93;;;-1.50;16.20;;;;;;5047075;28;20574;-67
2024/01/12 09:14:47;;;;;;;87.33;38.80;;;-1.60;16.20;;;;;;5047968;28;20472;-65
2024/01/12 09:17:13;;;;;;;81.83;37.10;;;-1.60;16.30;;;;;;5047738;28;20474;-65
2024/01/12 09:19:40;;;;;;;81.57;36.37;;;-1.60;16.40;;;;;;5039870;28;20463;-66
2024/01/12 09:22:07;;;;;;;74.63;35.80;;;-1.60;16.40;;;;;;5041280;28;20466;-66
2024/01/12 09:24:34;;;;;;;92.73;36.93;;;-1.60;16.40;;;;;;5043094;28;20458;-65
2024/01/12 09:27:01;;;;;;;77.33;34.63;;;-1.60;16.00;;;;;;5043011;28;20485;-65
2024/01/12 09:29:28;;;;;;;79.30;36.60;;;-1.70;16.00;;;;;;5044760;28;21174;-66
2024/01/12 09:31:56;;;;;;;79.67;37.27;;;-1.80;16.00;;;;;;5050102;28;20474;-65
2024/01/12 09:34:23;;;;;;;79.63;37.00;;;-1.80;16.80;;;;;;5045276;28;20463;-65
2024/01/12 09:36:50;;;;;;;87.03;37.37;;;-1.70;16.60;;;;;;5049356;28;20489;-66
2024/01/12 09:39:17;;;;;;;77.23;37.17;;;-1.60;16.70;;;;;;5049472;28;20552;-66
2024/01/12 09:41:47;;;;;;;83.50;34.67;;;-1.60;16.70;;;;;;5046578;28;20504;-67
2024/01/12 09:44:15;;;;;;;77.20;35.70;;;-1.50;16.10;;;;;;5041325;28;20454;-67
2024/01/12 09:46:53;;;;;;;82.37;37.97;;;-1.50;16.20;;;;;;5049304;28;20574;-67
2024/01/12 09:49:22;;;;;;;75.20;35.30;;;-1.50;16.40;;;;;;5047597;28;20465;-68
2024/01/12 09:51:49;;;;;;;77.40;37.73;;;-1.40;16.40;;;;;;5046565;28;21100;-69
2024/01/12 09:54:16;;;;;;;74.13;35.40;;;-1.40;16.50;;;;;;5041494;28;20568;-70
2024/01/12 09:56:44;;;;;;;79.73;38.97;;;-1.30;16.70;;;;;;5046442;28;20481;-68
2024/01/12 09:59:11;;;;;;;72.53;36.83;;;-1.20;16.50;;;;;;5047027;28;20492;-69
2024/01/12 10:01:41;;;;;;;80.03;36.00;;;-1.10;16.20;;;;;;5040897;28;20837;-69
2024/01/12 10:04:08;;;;;;;76.17;35.87;;;-1.00;16.40;;;;;;5045793;28;20457;-68
2024/01/12 10:06:36;;;;;;;81.03;37.63;;;-0.90;16.00;;;;;;5045627;28;20516;-69
2024/01/12 10:09:04;;;;;;;79.07;38.60;;;-0.80;16.00;;;;;;5046847;28;20508;-67
2024/01/12 10:11:31;;;;;;;93.40;39.23;;;-0.80;15.90;;;;;;5045172;28;20962;-68
2024/01/12 10:13:58;;;;;;;89.50;39.60;;;-0.80;15.70;;;;;;5045442;28;20476;-68
2024/01/12 10:16:28;;;;;;;72.47;36.40;;;-0.70;15.70;;;;;;5044831;28;20482;-68
2024/01/12 10:18:56;;;;;;;82.97;38.40;;;-0.70;15.70;;;;;;5045568;28;20462;-68
2024/01/12 10:21:23;;;;;;;75.50;38.50;;;-0.60;15.50;;;;;;5043248;28;20475;-68
2024/01/12 10:23:51;;;;;;;80.60;37.50;;;-0.50;15.20;;;;;;5039760;28;20469;-68
2024/01/12 10:26:18;;;;;;;77.00;38.13;;;-0.40;14.60;;;;;;5043850;28;20616;-68
2024/01/12 10:28:45;;;;;;;86.37;37.70;;;-0.40;14.40;;;;;;5043962;28;20577;-67
2024/01/12 10:31:12;;;;;;;84.93;40.90;;;-0.30;14.60;;;;;;5045155;28;20492;-69
2024/01/12 10:33:41;;;;;;;83.57;40.63;;;-0.20;14.50;;;;;;5047189;28;21263;-67
2024/01/12 10:36:13;;;;;;;85.60;38.13;;;-0.10;14.30;;;;;;5042403;28;20827;-68
2024/01/12 10:38:41;;;;;;;88.37;38.63;;;0.00;13.90;;;;;;5045024;28;20540;-67
2024/01/12 10:41:12;;;;;;;88.50;40.90;;;0.00;13.60;;;;;;5044534;28;20565;-67
2024/01/12 10:43:39;;;;;;;77.50;36.27;;;0.00;13.50;;;;;;5044556;28;20464;-67
2024/01/12 10:46:11;;;;;;;74.47;36.20;;;0.00;13.70;;;;;;5045463;28;20468;-67
2024/01/12 10:48:47;;;;;;;80.13;39.63;;;0.10;13.70;;;;;;5046356;28;20501;-67
2024/01/12 10:51:15;;;;;;;83.10;39.10;;;0.20;13.60;;;;;;5045377;28;20453;-67
2024/01/12 10:53:51;;;;;;;71.17;35.63;;;0.30;13.90;;;;;;5046118;28;20461;-68
2024/01/12 10:56:20;;;;;;;79.83;37.57;;;0.40;13.40;;;;;;5051766;28;20509;-67
2024/01/12 10:58:49;;;;;;;71.90;36.27;;;0.50;13.50;;;;;;5069621;28;20485;-68
2024/01/12 11:01:16;;;;;;;73.60;35.97;;;0.80;13.30;;;;;;5071490;28;20506;-67
2024/01/12 11:03:44;;;;;;;70.53;35.43;;;1.10;13.30;;;;;;5052969;28;20562;-67
2024/01/12 11:06:13;;;;;;;65.87;36.20;;;1.20;11.90;;;;;;5046338;28;20461;-69
2024/01/12 11:08:42;;;;;;;69.40;37.07;;;1.30;11.70;;;;;;5045476;28;20483;-68
2024/01/12 11:11:11;;;;;;;64.07;34.50;;;1.50;11.00;;;;;;5046513;28;20472;-68
2024/01/12 11:13:40;;;;;;;79.17;40.13;;;1.50;10.80;;;;;;5040964;28;20470;-69
2024/01/12 11:16:08;;;;;;;75.03;38.57;;;1.40;10.20;;;;;;5045022;28;20550;-68
2024/01/12 11:18:37;;;;;;;74.97;39.87;;;1.40;10.50;;;;;;5046404;28;20551;-69
2024/01/12 11:21:04;;;;;;;78.70;38.33;;;1.40;11.10;;;;;;5048954;28;20476;-69
2024/01/12 11:23:39;;;;;;;77.10;37.93;;;1.50;11.40;;;;;;5048740;28;20450;-68
2024/01/12 11:26:06;;;;;;;70.60;36.90;;;1.60;10.90;;;;;;5045204;28;20974;-67
2024/01/12 11:28:37;;;;;;;71.40;40.23;;;1.60;10.50;;;;;;5049420;28;20990;-69
2024/01/12 11:31:05;;;;;;;75.43;37.77;;;1.70;10.60;;;;;;5047687;28;20484;-68
2024/01/12 11:33:39;;;;;;;74.97;38.07;;;1.70;10.80;;;;;;5049536;28;20550;-68
2024/01/12 11:36:09;;;;;;;68.40;35.80;;;1.80;10.80;;;;;;5043605;28;20465;-68
2024/01/12 11:38:40;;;;;;;70.63;37.23;;;1.80;10.60;;;;;;5046921;28;20942;-68
2024/01/12 11:41:11;;;;;;;79.13;37.77;;;1.90;10.40;;;;;;5046175;28;21074;-68
2024/01/12 11:43:38;;;;;;;74.07;38.87;;;1.90;10.40;;;;;;5044423;28;20466;-69
2024/01/12 11:46:06;;;;;;;74.70;37.97;;;2.00;10.60;;;;;;5047311;28;20462;-68
2024/01/12 11:48:33;;;;;;;75.53;38.37;;;2.00;10.70;;;;;;5043891;28;21213;-68
2024/01/12 11:51:00;;;;;;;68.33;36.97;;;2.00;10.50;;;;;;5043736;28;20490;-68
2024/01/12 11:53:27;;;;;;;78.97;40.53;;;2.00;11.10;;;;;;5048596;28;20553;-68
2024/01/12 11:55:54;;;;;;;81.73;40.20;;;2.00;10.70;;;;;;5051345;28;20541;-69
2024/01/12 11:58:21;;;;;;;88.90;41.87;;;2.00;10.80;;;;;;5045119;28;20564;-68
2024/01/12 12:00:49;;;;;;;82.03;39.80;;;2.00;10.70;;;;;;5043488;28;20573;-69
2024/01/12 12:03:18;;;;;;;76.53;40.10;;;2.00;10.80;;;;;;5047824;28;20454;-68
2024/01/12 12:05:45;;;;;;;76.07;40.53;;;2.00;10.80;;;;;;5049221;28;20454;-69
2024/01/12 12:08:12;;;;;;;77.63;38.00;;;2.00;10.60;;;;;;5048395;28;20844;-68
2024/01/12 12:10:38;;;;;;;77.07;40.23;;;1.90;10.60;;;;;;5048960;28;20470;-67
2024/01/12 12:13:09;;;;;;;74.93;39.40;;;1.80;10.70;;;;;;5049271;28;20454;-67
2024/01/12 12:15:36;;;;;;;74.20;39.77;;;1.70;10.90;;;;;;5046136;28;20549;-68
2024/01/12 12:18:04;;;;;;;73.93;38.83;;;1.70;10.90;;;;;;5047369;28;20466;-68
2024/01/12 12:20:32;;;;;;;75.23;39.37;;;1.60;10.80;;;;;;5048396;28;21141;-68
2024/01/12 12:22:58;;;;;;;72.43;39.13;;;1.70;11.40;;;;;;5042961;28;20553;-67
2024/01/12 12:25:27;;;;;;;71.63;38.70;;;1.70;11.10;;;;;;5047876;28;20553;-67
2024/01/12 12:27:54;;;;;;;85.53;40.90;;;1.70;11.60;;;;;;5045940;28;20486;-68
2024/01/12 12:30:20;;;;;;;72.77;37.50;;;1.90;11.90;;;;;;5038528;28;20477;-68